Time;durP1;ratioP1;P1;durP2;ratioP2;P2;SDS_P1;SDS_P2;PMS_P1;PMS_P2;Temp;Humidity;BMP_temperature;BMP_pressure;BME280_temperature;BME280_humidity;BME280_pressure;Samples;Min_cycle;Max_cycle;Signal;HPM_P1;HPM_P2
2022/03/14 00:02:19;;;;;;;;;;;;;;;10.39;20.77;100364.31;4481803;32;33519;-81
2022/03/14 00:04:48;;;;;;;;;;;;;;;10.52;20.68;100360.41;4483188;32;34164;-81
2022/03/14 00:07:15;;;;;;;;;;;;;;;10.57;20.96;100361.44;4486306;31;34994;-82
2022/03/14 00:09:42;;;;;;;;;;;;;;;10.59;20.92;100370.16;4496265;31;34225;-81
2022/03/14 00:12:10;;;;;;;;;;;;;;;10.64;20.93;100372.87;4490811;31;33378;-80
2022/03/14 00:14:37;;;;;;;;;;;;;;;10.61;20.99;100372.81;4488949;31;33802;-81
2022/03/14 00:17:11;;;;;;;;;;;;;;;10.54;21.00;100382.09;4492932;31;34127;-80
2022/03/14 00:19:40;;;;;;;;;;;;;;;10.34;21.11;100375.34;4496210;31;34907;-82
2022/03/14 00:22:08;;;;;;;;;;;;;;;10.36;20.97;100379.78;4498924;31;33745;-80
2022/03/14 00:24:41;;;;;;;;;;;;;;;10.29;21.26;100379.53;4498891;31;34284;-81
2022/03/14 00:27:09;;;;;;;;;;;;;;;10.39;21.25;100376.41;4497478;31;34604;-80
2022/03/14 00:29:36;;;;;;;;;;;;;;;9.94;21.62;100381.75;4498791;31;35092;-81
2022/03/14 00:32:03;;;;;;;;;;;;;;;9.93;21.53;100382.59;4498865;31;33114;-81
2022/03/14 00:34:31;;;;;;;;;;;;;;;9.69;21.94;100380.88;4498435;31;34917;-80
2022/03/14 00:36:58;;;;;;;;;;;;;;;9.80;22.08;100377.81;4495107;31;34836;-81
2022/03/14 00:39:25;;;;;;;;;;;;;;;9.65;22.01;100376.44;4498895;31;33597;-80
2022/03/14 00:41:53;;;;;;;;;;;;;;;9.46;22.33;100380.06;4498852;31;33742;-82
2022/03/14 00:44:21;;;;;;;;;;;;;;;10.01;21.76;100372.50;4498637;31;35102;-81
2022/03/14 00:46:48;;;;;;;;;;;;;;;10.01;21.64;100378.56;4498710;31;35210;-82
2022/03/14 00:49:16;;;;;;;;;;;;;;;10.08;21.52;100385.72;4498370;31;34013;-81
2022/03/14 00:51:43;;;;;;;;;;;;;;;9.77;22.20;100385.47;4497285;31;34117;-81
2022/03/14 00:54:11;;;;;;;;;;;;;;;9.92;21.86;100384.28;4498246;31;35106;-80
2022/03/14 00:56:39;;;;;;;;;;;;;;;9.85;22.46;100384.94;4498773;31;33877;-80
2022/03/14 00:59:06;;;;;;;;;;;;;;;10.00;21.89;100384.59;4498647;31;34028;-80
2022/03/14 01:01:34;;;;;;;;;;;;;;;9.81;22.10;100380.47;4498743;31;34272;-81
2022/03/14 01:04:02;;;;;;;;;;;;;;;9.96;21.74;100385.28;4498090;31;33876;-82
2022/03/14 01:06:30;;;;;;;;;;;;;;;10.21;21.80;100387.88;4498313;31;34095;-80
2022/03/14 01:08:57;;;;;;;;;;;;;;;10.17;21.66;100380.84;4498159;31;34547;-81
2022/03/14 01:11:24;;;;;;;;;;;;;;;10.07;21.44;100386.53;4498531;31;33709;-81
2022/03/14 01:13:52;;;;;;;;;;;;;;;10.39;21.40;100389.37;4498315;31;35022;-80
2022/03/14 01:16:19;;;;;;;;;;;;;;;10.27;21.79;100392.44;4498079;31;34121;-82
2022/03/14 01:18:46;;;;;;;;;;;;;;;10.14;21.67;100392.81;4497971;31;35191;-82
2022/03/14 01:21:14;;;;;;;;;;;;;;;10.32;21.28;100390.88;4498253;31;34388;-81
2022/03/14 01:23:42;;;;;;;;;;;;;;;10.41;21.32;100391.16;4498349;31;34146;-81
2022/03/14 01:26:09;;;;;;;;;;;;;;;10.31;21.30;100398.59;4498332;31;35849;-81
2022/03/14 01:28:36;;;;;;;;;;;;;;;10.35;21.67;100400.47;4497741;31;34849;-82
2022/03/14 01:31:04;;;;;;;;;;;;;;;10.14;21.73;100398.88;4497770;31;32727;-81
2022/03/14 01:33:31;;;;;;;;;;;;;;;10.15;21.50;100398.06;4497527;31;34398;-82
2022/03/14 01:35:59;;;;;;;;;;;;;;;10.32;21.33;100400.38;4498203;31;34456;-81
2022/03/14 01:38:26;;;;;;;;;;;;;;;10.29;21.55;100395.94;4498085;31;34400;-82
2022/03/14 01:40:55;;;;;;;;;;;;;;;10.41;21.20;100401.53;4497996;31;33749;-82
2022/03/14 01:43:24;;;;;;;;;;;;;;;10.47;21.07;100400.88;4497834;31;34448;-81
2022/03/14 01:45:58;;;;;;;;;;;;;;;10.49;21.18;100404.38;4497892;31;34113;-80
2022/03/14 01:48:26;;;;;;;;;;;;;;;10.53;21.10;100402.75;4498966;31;34358;-81
2022/03/14 01:50:54;;;;;;;;;;;;;;;10.51;21.21;100405.31;4498279;31;32852;-81
2022/03/14 01:53:23;;;;;;;;;;;;;;;10.53;21.17;100411.47;4500353;31;34691;-81
2022/03/14 01:55:50;;;;;;;;;;;;;;;10.23;21.39;100409.56;4498924;31;34051;-82
2022/03/14 01:58:17;;;;;;;;;;;;;;;10.11;21.66;100416.91;4494801;31;33971;-82
2022/03/14 02:00:44;;;;;;;;;;;;;;;10.19;22.00;100411.97;4500040;31;33153;-82
2022/03/14 02:03:12;;;;;;;;;;;;;;;10.29;21.67;100421.88;4500206;31;34999;-82
2022/03/14 02:05:40;;;;;;;;;;;;;;;10.35;21.52;100416.03;4499498;31;34072;-81
2022/03/14 02:08:07;;;;;;;;;;;;;;;10.07;21.78;100420.22;4500049;31;35182;-81
2022/03/14 02:10:35;;;;;;;;;;;;;;;9.70;21.95;100418.94;4499726;31;33502;-81
2022/03/14 02:13:06;;;;;;;;;;;;;;;9.93;22.02;100427.53;4500036;31;33997;-81
2022/03/14 02:15:35;;;;;;;;;;;;;;;9.94;21.86;100418.91;4499615;31;34229;-82
2022/03/14 02:18:03;;;;;;;;;;;;;;;9.95;22.15;100424.97;4499521;31;35302;-80
2022/03/14 02:20:30;;;;;;;;;;;;;;;10.11;21.91;100424.66;4499680;31;33415;-82
2022/03/14 02:22:57;;;;;;;;;;;;;;;10.02;21.99;100433.84;4499468;31;34077;-82
2022/03/14 02:25:24;;;;;;;;;;;;;;;10.13;21.74;100432.50;4499525;31;34487;-82
2022/03/14 02:27:52;;;;;;;;;;;;;;;10.12;21.97;100431.62;4499774;31;35279;-81
2022/03/14 02:30:22;;;;;;;;;;;;;;;9.82;22.31;100434.03;4499622;31;33948;-81
2022/03/14 02:32:49;;;;;;;;;;;;;;;9.84;21.94;100437.53;4499533;31;34092;-81
2022/03/14 02:35:16;;;;;;;;;;;;;;;9.80;22.34;100429.59;4499693;31;35110;-81
2022/03/14 02:37:44;;;;;;;;;;;;;;;9.92;22.23;100437.81;4499458;31;35237;-82
2022/03/14 02:40:15;;;;;;;;;;;;;;;9.91;22.20;100428.28;4499068;31;33396;-81
2022/03/14 02:42:42;;;;;;;;;;;;;;;9.92;21.99;100435.22;4498755;31;33882;-80
2022/03/14 02:45:12;;;;;;;;;;;;;;;9.91;22.24;100433.47;4499750;31;34517;-81
2022/03/14 02:47:39;;;;;;;;;;;;;;;9.83;22.13;100433.19;4499425;31;34401;-82
2022/03/14 02:50:07;;;;;;;;;;;;;;;9.73;22.22;100444.91;4499788;31;33647;-81
2022/03/14 02:52:34;;;;;;;;;;;;;;;9.98;22.23;100440.63;4497022;31;33837;-82
2022/03/14 02:55:01;;;;;;;;;;;;;;;9.82;22.24;100439.19;4498198;31;34556;-81
2022/03/14 02:57:29;;;;;;;;;;;;;;;9.80;22.28;100437.37;4499434;31;34863;-81
2022/03/14 02:59:56;;;;;;;;;;;;;;;9.89;22.01;100443.78;4498473;31;34335;-82
2022/03/14 03:02:24;;;;;;;;;;;;;;;9.88;22.36;100441.13;4499708;31;34326;-82
2022/03/14 03:04:53;;;;;;;;;;;;;;;9.67;22.52;100444.69;4498287;31;35323;-82
2022/03/14 03:07:21;;;;;;;;;;;;;;;9.73;22.37;100455.25;4488354;31;34544;-82
2022/03/14 03:09:49;;;;;;;;;;;;;;;9.79;22.49;100454.63;4499334;31;33588;-82
2022/03/14 03:12:19;;;;;;;;;;;;;;;9.54;22.83;100452.81;4499725;31;33856;-81
2022/03/14 03:14:46;;;;;;;;;;;;;;;9.61;23.08;100460.00;4498514;31;34880;-81
2022/03/14 03:17:15;;;;;;;;;;;;;;;9.62;22.88;100472.16;4498322;31;33957;-82
2022/03/14 03:19:42;;;;;;;;;;;;;;;9.73;22.77;100468.22;4499445;31;33636;-81
2022/03/14 03:22:09;;;;;;;;;;;;;;;9.72;22.61;100474.22;4498850;31;34110;-81
2022/03/14 03:24:36;;;;;;;;;;;;;;;9.63;22.82;100473.03;4499648;31;34022;-82
2022/03/14 03:27:04;;;;;;;;;;;;;;;9.74;22.84;100472.59;4499251;31;34623;-82
2022/03/14 03:29:31;;;;;;;;;;;;;;;9.66;22.98;100473.09;4497692;31;34460;-82
2022/03/14 03:31:58;;;;;;;;;;;;;;;9.73;22.70;100475.97;4498635;31;34128;-81
2022/03/14 03:34:26;;;;;;;;;;;;;;;9.61;22.71;100467.78;4499370;31;34489;-81
2022/03/14 03:36:53;;;;;;;;;;;;;;;9.57;22.73;100478.84;4499169;31;34278;-82
2022/03/14 03:39:20;;;;;;;;;;;;;;;9.61;22.64;100479.84;4499682;31;34235;-82
2022/03/14 03:41:47;;;;;;;;;;;;;;;9.54;22.63;100476.12;4499702;31;35107;-82
2022/03/14 03:44:15;;;;;;;;;;;;;;;9.50;22.83;100487.19;4499033;31;34582;-81
2022/03/14 03:46:42;;;;;;;;;;;;;;;9.51;22.65;100483.81;4498139;31;34391;-82
2022/03/14 03:49:09;;;;;;;;;;;;;;;9.43;22.63;100475.75;4499280;31;34149;-82
2022/03/14 03:51:36;;;;;;;;;;;;;;;9.45;22.73;100479.25;4499246;31;33876;-82
2022/03/14 03:54:03;;;;;;;;;;;;;;;9.59;22.82;100482.38;4499055;31;35029;-81
2022/03/14 03:56:32;;;;;;;;;;;;;;;9.47;22.90;100487.06;4499334;31;34228;-80
2022/03/14 03:59:00;;;;;;;;;;;;;;;9.58;22.73;100488.34;4499153;31;32832;-81
2022/03/14 04:01:29;;;;;;;;;;;;;;;9.45;22.85;100491.31;4498430;31;33847;-82
2022/03/14 04:03:58;;;;;;;;;;;;;;;9.56;22.80;100497.78;4499083;31;34451;-82
2022/03/14 04:06:30;;;;;;;;;;;;;;;9.46;22.82;100487.91;4498637;31;35195;-82
2022/03/14 04:09:00;;;;;;;;;;;;;;;9.30;22.93;100482.97;4499044;31;33898;-83
2022/03/14 04:11:28;;;;;;;;;;;;;;;9.22;23.02;100483.53;4498894;31;34254;-81
2022/03/14 04:13:56;;;;;;;;;;;;;;;9.37;22.96;100483.25;4498897;31;34397;-81
2022/03/14 04:16:26;;;;;;;;;;;;;;;9.16;23.09;100491.06;4498528;31;34467;-81
2022/03/14 04:18:55;;;;;;;;;;;;;;;9.33;22.90;100483.09;4499066;31;33772;-81
2022/03/14 04:21:23;;;;;;;;;;;;;;;9.34;22.63;100484.84;4498777;31;34224;-81
2022/03/14 04:23:51;;;;;;;;;;;;;;;9.25;22.75;100491.44;4498955;31;34199;-82
2022/03/14 04:26:19;;;;;;;;;;;;;;;9.30;22.90;100491.59;4498892;31;33888;-81
2022/03/14 04:28:46;;;;;;;;;;;;;;;9.24;22.85;100487.09;4498969;31;33314;-80
2022/03/14 04:31:15;;;;;;;;;;;;;;;9.34;22.97;100496.06;4491652;31;33741;-82
2022/03/14 04:33:42;;;;;;;;;;;;;;;9.11;23.28;100502.94;4498921;31;35251;-81
2022/03/14 04:36:13;;;;;;;;;;;;;;;9.07;23.39;100503.62;4499184;31;34616;-82
2022/03/14 04:38:41;;;;;;;;;;;;;;;9.07;23.33;100506.22;4498960;31;32902;-82
2022/03/14 04:41:09;;;;;;;;;;;;;;;9.09;23.32;100507.19;4498617;31;34175;-82
2022/03/14 04:43:36;;;;;;;;;;;;;;;9.14;23.09;100503.06;4498248;31;34529;-80
2022/03/14 04:46:03;;;;;;;;;;;;;;;9.11;23.13;100515.88;4498169;31;34564;-82
2022/03/14 04:48:30;;;;;;;;;;;;;;;9.20;23.17;100516.22;4498296;31;33775;-81
2022/03/14 04:50:58;;;;;;;;;;;;;;;9.23;23.12;100518.94;4498233;31;33970;-81
2022/03/14 04:53:25;;;;;;;;;;;;;;;9.18;23.42;100523.06;4482861;32;34311;-81
2022/03/14 04:55:52;;;;;;;;;;;;;;;9.11;23.39;100525.34;4482497;32;33847;-81
2022/03/14 04:58:19;;;;;;;;;;;;;;;9.25;23.38;100519.91;4482891;32;34123;-81
2022/03/14 05:00:47;;;;;;;;;;;;;;;9.23;23.30;100518.94;4482854;32;33794;-81
2022/03/14 05:03:14;;;;;;;;;;;;;;;9.04;23.46;100520.75;4482873;32;35349;-81
2022/03/14 05:05:42;;;;;;;;;;;;;;;9.02;23.56;100529.31;4490313;31;35162;-82
2022/03/14 05:08:10;;;;;;;;;;;;;;;8.97;23.66;100537.72;4473463;31;781555;-81
2022/03/14 05:10:37;;;;;;;;;;;;;;;9.09;23.55;100533.06;4497119;31;34912;-81
2022/03/14 05:13:04;;;;;;;;;;;;;;;9.26;23.22;100534.59;4498022;31;34793;-82
2022/03/14 05:15:33;;;;;;;;;;;;;;;9.15;23.04;100538.47;4498405;31;34605;-81
2022/03/14 05:18:01;;;;;;;;;;;;;;;9.04;23.10;100534.56;4498178;31;33700;-80
2022/03/14 05:20:28;;;;;;;;;;;;;;;9.05;23.20;100541.47;4497144;31;34014;-81
2022/03/14 05:22:56;;;;;;;;;;;;;;;9.14;23.32;100541.87;4498781;31;34274;-80
2022/03/14 05:25:23;;;;;;;;;;;;;;;9.25;23.38;100537.12;4499656;31;33997;-80
2022/03/14 05:27:52;;;;;;;;;;;;;;;9.07;23.33;100550.19;4485644;31;34648;-81
2022/03/14 05:30:20;;;;;;;;;;;;;;;8.99;23.29;100546.44;4500011;31;34230;-81
2022/03/14 05:32:47;;;;;;;;;;;;;;;9.10;22.96;100550.34;4499972;31;34114;-81
2022/03/14 05:35:15;;;;;;;;;;;;;;;9.32;23.11;100549.50;4500189;31;35683;-81
2022/03/14 05:37:43;;;;;;;;;;;;;;;9.29;22.74;100545.91;4499967;31;33129;-81
2022/03/14 05:40:12;;;;;;;;;;;;;;;9.29;22.76;100554.56;4500014;31;34595;-82
2022/03/14 05:42:39;;;;;;;;;;;;;;;9.26;23.06;100565.66;4498383;31;33963;-82
2022/03/14 05:45:08;;;;;;;;;;;;;;;9.47;23.20;100565.63;4500310;31;34849;-82
2022/03/14 05:47:35;;;;;;;;;;;;;;;9.52;22.66;100568.41;4499466;31;33643;-81
2022/03/14 05:50:03;;;;;;;;;;;;;;;9.26;22.58;100573.41;4500028;31;34313;-81
2022/03/14 05:52:30;;;;;;;;;;;;;;;9.56;22.25;100572.00;4499792;31;35683;-82
2022/03/14 05:54:57;;;;;;;;;;;;;;;9.67;22.29;100571.59;4499861;31;34291;-81
2022/03/14 05:57:24;;;;;;;;;;;;;;;9.73;22.43;100576.97;4500039;31;32008;-81
2022/03/14 05:59:52;;;;;;;;;;;;;;;9.94;22.12;100581.25;4500097;31;34257;-82
2022/03/14 06:02:20;;;;;;;;;;;;;;;10.04;21.86;100596.31;4499938;31;34362;-83
2022/03/14 06:04:48;;;;;;;;;;;;;;;10.11;21.65;100592.22;4499194;31;34240;-83
2022/03/14 06:07:16;;;;;;;;;;;;;;;9.64;22.25;100597.34;4499835;31;33523;-82
2022/03/14 06:09:43;;;;;;;;;;;;;;;9.89;21.89;100596.63;4499960;31;34203;-81
2022/03/14 06:12:11;;;;;;;;;;;;;;;9.71;21.51;100589.00;4499126;31;34304;-82
2022/03/14 06:14:38;;;;;;;;;;;;;;;8.57;22.59;100598.09;4499460;31;33831;-81
2022/03/14 06:17:05;;;;;;;;;;;;;;;9.63;21.57;100603.37;4499027;31;33367;-82
2022/03/14 06:19:32;;;;;;;;;;;;;;;8.78;22.57;100611.94;4499648;31;35132;-82
2022/03/14 06:21:59;;;;;;;;;;;;;;;9.25;22.57;100617.34;4499650;31;35090;-81
2022/03/14 06:24:26;;;;;;;;;;;;;;;9.36;21.56;100610.91;4499121;31;34821;-80
2022/03/14 06:26:54;;;;;;;;;;;;;;;9.71;21.38;100616.63;4499019;31;31752;-81
2022/03/14 06:29:21;;;;;;;;;;;;;;;9.92;20.99;100626.91;4499717;31;34909;-80
2022/03/14 06:31:48;;;;;;;;;;;;;;;8.80;21.82;100626.66;4499927;31;34046;-79
2022/03/14 06:34:16;;;;;;;;;;;;;;;8.87;22.01;100623.50;4498679;31;35111;-80
2022/03/14 06:36:44;;;;;;;;;;;;;;;8.87;22.33;100623.50;4499664;31;33329;-80
2022/03/14 06:39:11;;;;;;;;;;;;;;;7.68;23.80;100637.00;4498492;31;33911;-80
2022/03/14 06:41:39;;;;;;;;;;;;;;;8.16;23.07;100634.97;4499289;31;35009;-80
2022/03/14 06:44:06;;;;;;;;;;;;;;;8.70;22.69;100628.81;4499905;31;33778;-81
2022/03/14 06:46:33;;;;;;;;;;;;;;;8.85;23.27;100628.59;4498103;31;32748;-81
2022/03/14 06:49:01;;;;;;;;;;;;;;;9.15;22.29;100626.44;4499616;31;35094;-81
2022/03/14 06:51:28;;;;;;;;;;;;;;;9.13;22.67;100630.69;4499657;31;34454;-81
2022/03/14 06:53:55;;;;;;;;;;;;;;;7.68;24.51;100637.91;4499548;31;34493;-81
2022/03/14 06:56:22;;;;;;;;;;;;;;;9.21;22.78;100634.47;4499496;31;34170;-81
2022/03/14 06:58:49;;;;;;;;;;;;;;;9.02;22.80;100637.09;4498537;31;34129;-81
2022/03/14 07:01:18;;;;;;;;;;;;;;;9.35;22.26;100639.31;4499038;31;34044;-81
2022/03/14 07:03:45;;;;;;;;;;;;;;;9.45;22.50;100638.88;4496292;31;32929;-80
2022/03/14 07:06:13;;;;;;;;;;;;;;;9.73;22.74;100651.22;4496352;31;33525;-80
2022/03/14 07:08:40;;;;;;;;;;;;;;;9.30;22.95;100643.41;4496545;31;34041;-82
2022/03/14 07:11:07;;;;;;;;;;;;;;;10.21;21.56;100644.47;4498728;31;34746;-82
2022/03/14 07:13:34;;;;;;;;;;;;;;;8.75;22.54;100641.94;4499040;31;34468;-81
2022/03/14 07:16:01;;;;;;;;;;;;;;;10.21;21.54;100646.19;4499362;31;33345;-81
2022/03/14 07:18:30;;;;;;;;;;;;;;;9.34;21.48;100640.13;4499306;31;35072;-81
2022/03/14 07:20:57;;;;;;;;;;;;;;;8.86;22.24;100639.81;4499518;31;35354;-83
2022/03/14 07:23:25;;;;;;;;;;;;;;;9.72;21.37;100641.69;4499619;31;34014;-81
2022/03/14 07:25:52;;;;;;;;;;;;;;;10.23;20.75;100640.22;4498983;31;33634;-81
2022/03/14 07:28:19;;;;;;;;;;;;;;;9.78;21.38;100643.66;4499200;31;34206;-81
2022/03/14 07:30:46;;;;;;;;;;;;;;;9.80;20.95;100642.84;4498924;31;34335;-81
2022/03/14 07:33:15;;;;;;;;;;;;;;;8.91;21.57;100652.16;4498638;31;35382;-82
2022/03/14 07:35:42;;;;;;;;;;;;;;;9.29;21.56;100650.31;4499263;31;34491;-82
2022/03/14 07:38:10;;;;;;;;;;;;;;;9.48;20.89;100645.06;4498542;31;34173;-81
2022/03/14 07:40:38;;;;;;;;;;;;;;;9.56;21.50;100649.66;4499313;31;34599;-81
2022/03/14 07:43:05;;;;;;;;;;;;;;;9.57;21.40;100652.31;4499224;31;34449;-81
2022/03/14 07:45:32;;;;;;;;;;;;;;;8.98;21.60;100650.72;4497756;31;33003;-82
2022/03/14 07:48:05;;;;;;;;;;;;;;;9.67;21.30;100650.97;4498810;31;33902;-81
2022/03/14 07:50:33;;;;;;;;;;;;;;;9.74;21.26;100659.06;4498909;31;35183;-82
2022/03/14 07:53:01;;;;;;;;;;;;;;;9.99;20.77;100657.41;4499352;31;34011;-82
2022/03/14 07:55:28;;;;;;;;;;;;;;;9.59;21.23;100658.44;4498791;31;32496;-81
2022/03/14 07:57:55;;;;;;;;;;;;;;;9.38;21.08;100663.63;4498213;31;33892;-82
2022/03/14 08:00:23;;;;;;;;;;;;;;;10.11;20.64;100660.47;4498602;31;34206;-81
2022/03/14 08:02:51;;;;;;;;;;;;;;;9.25;21.49;100662.22;4499024;31;34383;-82
2022/03/14 08:05:24;;;;;;;;;;;;;;;9.42;21.60;100665.50;4498063;31;34858;-80
2022/03/14 08:07:54;;;;;;;;;;;;;;;10.15;20.64;100661.47;4498611;31;34159;-84
2022/03/14 08:10:21;;;;;;;;;;;;;;;9.85;20.90;100667.25;4492311;31;35037;-81
2022/03/14 08:12:50;;;;;;;;;;;;;;;9.49;21.05;100669.22;4498668;31;35143;-81
2022/03/14 08:15:19;;;;;;;;;;;;;;;10.62;20.22;100681.47;4498677;31;33504;-81
2022/03/14 08:17:46;;;;;;;;;;;;;;;11.06;19.96;100666.59;4499142;31;34340;-82
2022/03/14 08:20:13;;;;;;;;;;;;;;;11.38;19.16;100669.41;4491754;31;35352;-81
2022/03/14 08:22:41;;;;;;;;;;;;;;;11.74;19.24;100672.31;4494464;31;34947;-81
2022/03/14 08:25:09;;;;;;;;;;;;;;;11.61;19.35;100676.22;4492160;31;34135;-81
2022/03/14 08:27:36;;;;;;;;;;;;;;;11.64;18.96;100673.75;4498722;31;34023;-82
2022/03/14 08:30:04;;;;;;;;;;;;;;;10.91;19.59;100673.81;4498713;31;34259;-81
2022/03/14 08:32:32;;;;;;;;;;;;;;;11.35;19.20;100677.09;4497249;31;35754;-82
2022/03/14 08:35:07;;;;;;;;;;;;;;;11.74;19.03;100682.69;4496708;31;34471;-81
2022/03/14 08:37:41;;;;;;;;;;;;;;;10.41;20.49;100685.84;4497747;31;33935;-81
2022/03/14 08:40:13;;;;;;;;;;;;;;;10.15;20.51;100677.94;4497232;31;34270;-81
2022/03/14 08:42:41;;;;;;;;;;;;;;;10.28;20.75;100681.03;4498500;31;35358;-81
2022/03/14 08:45:08;;;;;;;;;;;;;;;10.46;20.46;100679.12;4495723;31;33383;-79
2022/03/14 08:47:36;;;;;;;;;;;;;;;10.69;20.22;100688.63;4497925;31;34373;-79
2022/03/14 08:50:06;;;;;;;;;;;;;;;9.88;21.17;100687.19;4498744;31;35221;-81
2022/03/14 08:52:33;;;;;;;;;;;;;;;11.32;20.09;100683.03;4497296;31;34628;-81
2022/03/14 08:55:01;;;;;;;;;;;;;;;11.69;19.73;100679.97;4491529;31;34315;-80
2022/03/14 08:57:29;;;;;;;;;;;;;;;11.33;19.92;100689.16;4497221;31;33528;-80
2022/03/14 08:59:56;;;;;;;;;;;;;;;11.52;19.57;100688.94;4498425;31;34246;-81
2022/03/14 09:02:25;;;;;;;;;;;;;;;11.47;19.27;100684.41;4498340;31;34590;-80
2022/03/14 09:04:52;;;;;;;;;;;;;;;11.09;20.10;100683.97;4497106;31;34054;-80
2022/03/14 09:07:25;;;;;;;;;;;;;;;11.67;19.37;100681.66;4496687;31;34921;-81
2022/03/14 09:09:53;;;;;;;;;;;;;;;11.82;19.65;100688.13;4498310;31;34525;-81
2022/03/14 09:12:20;;;;;;;;;;;;;;;12.41;19.15;100695.22;4494988;31;34334;-81
2022/03/14 09:14:48;;;;;;;;;;;;;;;12.40;18.48;100687.41;4488576;31;33591;-79
2022/03/14 09:17:15;;;;;;;;;;;;;;;11.96;18.56;100683.44;4498337;31;34222;-81
2022/03/14 09:19:42;;;;;;;;;;;;;;;11.85;18.75;100691.75;4497941;31;34195;-81
2022/03/14 09:22:10;;;;;;;;;;;;;;;11.09;19.74;100684.84;4497868;31;35367;-81
2022/03/14 09:24:39;;;;;;;;;;;;;;;11.67;19.59;100684.25;4497987;31;34313;-80
2022/03/14 09:27:06;;;;;;;;;;;;;;;10.93;19.75;100703.31;4493152;31;34932;-81
2022/03/14 09:29:34;;;;;;;;;;;;;;;10.55;20.52;100702.78;4485497;31;34311;-81
2022/03/14 09:32:01;;;;;;;;;;;;;;;11.09;20.05;100682.25;4491502;31;35273;-79
2022/03/14 09:34:29;;;;;;;;;;;;;;;11.99;19.39;100679.22;4497321;31;33803;-79
2022/03/14 09:36:57;;;;;;;;;;;;;;;11.52;20.05;100686.34;4497887;31;33610;-80
2022/03/14 09:39:25;;;;;;;;;;;;;;;11.01;20.45;100686.31;4497824;31;34386;-79
2022/03/14 09:41:53;;;;;;;;;;;;;;;11.79;20.17;100690.66;4496129;31;33956;-78
2022/03/14 09:44:21;;;;;;;;;;;;;;;12.61;19.03;100685.44;4486953;31;33436;-78
2022/03/14 09:46:49;;;;;;;;;;;;;;;12.07;19.50;100682.91;4496512;31;34237;-79
2022/03/14 09:49:16;;;;;;;;;;;;;;;12.13;20.00;100684.84;4496068;31;33768;-79
2022/03/14 09:51:44;;;;;;;;;;;;;;;13.61;18.84;100678.56;4489967;31;35140;-78
2022/03/14 09:54:11;;;;;;;;;;;;;;;14.23;17.94;100674.78;4488629;31;34982;-78
2022/03/14 09:56:42;;;;;;;;;;;;;;;14.14;17.92;100679.81;4496562;31;33762;-78
2022/03/14 09:59:11;;;;;;;;;;;;;;;14.27;17.92;100677.47;4492364;31;34120;-79
2022/03/14 10:01:38;;;;;;;;;;;;;;;14.81;17.40;100681.25;4495655;31;34486;-78
2022/03/14 10:04:08;;;;;;;;;;;;;;;13.87;17.62;100684.41;4497395;31;33576;-77
2022/03/14 10:06:36;;;;;;;;;;;;;;;13.70;17.40;100679.62;4496163;31;33840;-79
2022/03/14 10:09:03;;;;;;;;;;;;;;;13.53;17.53;100676.63;4487987;31;34030;-78
2022/03/14 10:11:31;;;;;;;;;;;;;;;13.65;17.69;100682.13;4484555;31;35251;-78
2022/03/14 10:13:58;;;;;;;;;;;;;;;14.48;16.70;100669.25;4486796;31;33665;-79
2022/03/14 10:16:26;;;;;;;;;;;;;;;13.55;17.68;100677.53;4498912;31;34418;-79
2022/03/14 10:18:54;;;;;;;;;;;;;;;13.97;17.48;100668.97;4498732;31;33838;-80
2022/03/14 10:21:28;;;;;;;;;;;;;;;13.46;17.73;100674.72;4498556;31;34646;-81
2022/03/14 10:23:56;;;;;;;;;;;;;;;14.00;17.45;100667.31;4498804;31;34339;-81
2022/03/14 10:26:24;;;;;;;;;;;;;;;14.03;17.25;100674.34;4487529;31;34186;-81
2022/03/14 10:28:54;;;;;;;;;;;;;;;14.48;17.03;100676.19;4490389;31;33667;-81
2022/03/14 10:31:45;;;;;;;;;;;;;;;13.24;18.16;100678.47;4496625;31;34211;-82
2022/03/14 10:34:13;;;;;;;;;;;;;;;12.25;18.87;100692.13;4487125;31;33105;-79
2022/03/14 10:36:45;;;;;;;;;;;;;;;13.45;18.23;100681.66;4487427;31;34108;-80
2022/03/14 10:39:13;;;;;;;;;;;;;;;14.30;17.09;100682.78;4490833;31;33844;-82
2022/03/14 10:41:41;;;;;;;;;;;;;;;13.29;18.02;100684.69;4486971;31;34208;-81
2022/03/14 10:44:26;;;;;;;;;;;;;;;14.55;17.41;100672.91;4483301;32;34420;-82
2022/03/14 10:46:55;;;;;;;;;;;;;;;14.46;16.98;100680.50;4483531;32;34207;-81
2022/03/14 10:49:26;;;;;;;;;;;;;;;14.63;16.70;100673.06;4484566;31;35118;-79
2022/03/14 10:52:00;;;;;;;;;;;;;;;14.42;16.97;100676.94;4496887;31;35309;-80
2022/03/14 10:54:28;;;;;;;;;;;;;;;14.50;17.73;100685.84;4487441;31;33329;-80
2022/03/14 10:57:05;;;;;;;;;;;;;;;13.33;17.87;100681.31;4496374;31;34240;-81
2022/03/14 10:59:38;;;;;;;;;;;;;;;14.47;18.00;100683.16;4490514;31;34184;-80
2022/03/14 11:02:06;;;;;;;;;;;;;;;14.81;16.83;100679.53;4499792;31;34496;-79
2022/03/14 11:04:41;;;;;;;;;;;;;;;14.75;16.47;100682.00;4497893;31;34460;-80
2022/03/14 11:07:08;;;;;;;;;;;;;;;14.88;16.75;100682.25;4499116;31;35178;-79
2022/03/14 11:09:44;;;;;;;;;;;;;;;14.49;16.97;100688.37;4498181;31;34478;-80
2022/03/14 11:12:14;;;;;;;;;;;;;;;15.27;16.34;100666.44;4498367;31;34348;-78
2022/03/14 11:14:41;;;;;;;;;;;;;;;15.25;16.17;100662.91;4499281;31;33394;-78
2022/03/14 11:17:16;;;;;;;;;;;;;;;13.75;17.35;100662.38;4498957;31;34088;-80
2022/03/14 11:19:44;;;;;;;;;;;;;;;13.91;17.61;100666.25;4497654;31;34184;-80
2022/03/14 11:22:12;;;;;;;;;;;;;;;14.94;16.96;100666.72;4499413;31;34263;-79
2022/03/14 11:24:42;;;;;;;;;;;;;;;15.13;16.49;100666.19;4499026;31;34422;-80
2022/03/14 11:27:10;;;;;;;;;;;;;;;14.81;17.36;100668.19;4497815;31;34562;-81
2022/03/14 11:29:37;;;;;;;;;;;;;;;14.26;17.40;100665.28;4498878;31;34832;-79
2022/03/14 11:32:04;;;;;;;;;;;;;;;14.01;18.00;100669.06;4497975;31;34959;-79
2022/03/14 11:34:52;;;;;;;;;;;;;;;14.33;17.35;100656.75;4498377;31;34052;-79
2022/03/14 11:37:19;;;;;;;;;;;;;;;14.21;17.73;100655.62;4485754;31;34125;-79
2022/03/14 11:39:46;;;;;;;;;;;;;;;15.12;17.46;100647.91;4497197;31;35776;-80
2022/03/14 11:42:15;;;;;;;;;;;;;;;15.08;17.06;100642.59;4496474;31;34169;-80
2022/03/14 11:44:43;;;;;;;;;;;;;;;14.80;17.20;100643.81;4495607;31;34440;-81
2022/03/14 11:47:11;;;;;;;;;;;;;;;16.14;16.44;100643.41;4497734;31;33964;-80
2022/03/14 11:49:38;;;;;;;;;;;;;;;16.14;16.50;100646.94;4487418;31;34977;-80
2022/03/14 11:52:07;;;;;;;;;;;;;;;15.48;16.51;100637.19;4485168;31;33983;-79
2022/03/14 11:54:36;;;;;;;;;;;;;;;15.53;16.99;100644.25;4499134;31;34386;-80
2022/03/14 11:57:03;;;;;;;;;;;;;;;16.36;16.19;100640.22;4498057;31;35069;-80
2022/03/14 11:59:31;;;;;;;;;;;;;;;15.63;16.74;100637.41;4498792;31;34470;-80
2022/03/14 12:02:00;;;;;;;;;;;;;;;15.19;17.04;100642.81;4498437;31;34610;-80
2022/03/14 12:04:32;;;;;;;;;;;;;;;14.99;17.27;100639.81;4498642;31;33127;-80
2022/03/14 12:07:00;;;;;;;;;;;;;;;15.39;17.27;100637.91;4498831;31;35010;-82
2022/03/14 12:09:29;;;;;;;;;;;;;;;14.75;17.46;100628.94;4498291;31;33868;-78
2022/03/14 12:11:57;;;;;;;;;;;;;;;15.89;17.72;100637.84;4497623;31;34672;-79
2022/03/14 12:14:43;;;;;;;;;;;;;;;16.76;16.15;100631.16;4499032;31;34552;-81
2022/03/14 12:17:14;;;;;;;;;;;;;;;16.93;15.66;100622.59;4493911;31;35185;-80
2022/03/14 12:19:47;;;;;;;;;;;;;;;15.65;16.37;100632.25;4488578;31;34043;-79
2022/03/14 12:22:35;;;;;;;;;;;;;;;16.48;16.69;100629.94;4498487;31;34365;-79
2022/03/14 12:25:03;;;;;;;;;;;;;;;15.09;17.04;100628.69;4484800;31;34171;-79
2022/03/14 12:27:38;;;;;;;;;;;;;;;15.35;17.01;100623.03;4498003;31;34894;-80
2022/03/14 12:30:18;;;;;;;;;;;;;;;15.32;17.24;100625.59;4498385;31;34256;-80
2022/03/14 12:32:49;;;;;;;;;;;;;;;15.02;17.71;100629.44;4493237;31;34578;-80
2022/03/14 12:35:17;;;;;;;;;;;;;;;16.41;16.28;100615.00;4498340;31;33604;-80
2022/03/14 12:37:44;;;;;;;;;;;;;;;16.35;16.28;100614.06;4497521;31;35049;-79
2022/03/14 12:40:18;;;;;;;;;;;;;;;15.83;16.77;100622.06;4496971;31;34228;-80
2022/03/14 12:42:47;;;;;;;;;;;;;;;15.23;17.44;100622.84;4497819;31;35110;-80
2022/03/14 12:45:15;;;;;;;;;;;;;;;15.33;17.48;100622.12;4488039;31;34535;-80
2022/03/14 12:48:05;;;;;;;;;;;;;;;15.55;17.53;100628.59;4498415;31;34187;-80